Terminal Aerodrome Forecast
Issued by NWS

Home | Current Version | Previous Version | Text Only | Print | Product List | Glossary On
Versions: 1 2 3 4 5 6 7 8 9 10 11 12 13 14 15 16
000
FTUS43 KFGF 271130
TAFBJI
TAF
KBJI 271130Z 2712/2812 18003KT P6SM VCSH OVC045
     FM271800 18009KT P6SM -TSRA OVC050CB
     FM272300 17007KT P6SM BKN130
     FM280300 VRB03KT P6SM SCT200
     FM281000 VRB03KT 5SM BR SCT250=

USA.gov is the U.S. government's official web portal to all federal, state and local government web resources and services.